Aérodrome :
LOGIN :

S'inscrire | Disclaimer

   EN    FR    IT 

 










Légende :    VFR   VFR Marginal   IFR   IFR Intensif   IFR Très Intensif
Visi : 
Plafond : 
>= 8 km
>= 3000ft
5 à 8 km
1000 à 3000 ft
1500m à 5 km
500 à 1000 ft
800 à 1500m
200 à 500 ft
< 800m
< 200 ft
Symboles :   Orages  Brouillard  Fortes neiges  Fortes précipitations  Vent > 20 kt
SIGMETs :   Divers  Orages  Givrage  Turbulence  Onde Orograph.  Cendres Volcan.






- Altitude de l'aérodrome : 16 ft
- Code IATA : SDR


LEXJ - Santander Cantabria

DERNIER METAR :
  • 032330Z AUTO 00000KT 8000 NCD 15/13 Q1025

METARs EXPIRÉS :
  • 032300Z AUTO VRB02KT 5000 BR NCD 15/13 Q1025
  • 032230Z AUTO VRB02KT 7000 NCD 16/13 Q1025
  • 032200Z AUTO VRB02KT 8000 NCD 16/13 Q1025
  • 032130Z AUTO 11003KT 8000 NCD 17/13 Q1025
  • 032100Z 08003KT 050V120 9999 SCT036 18/14 Q1025
  • 032030Z 07003KT 040V110 9999 SCT038 18/14 Q1025

TAF TAF LEXJ
Valide du 03 à 21h jusqu'au 04 à 21h UTC


032000Z 0321/0421 VRB06KT 9999 FEW050 TX22/0414Z TN12/0405Z
PROB40
TEMPO 0411/0417 02010KT



MET'MAP, la Météo Aéronautique d'un coup d'oeil ! - Copyright ORBIFLY Décembre 2007 - Disclaimer

ORBIFLY MET'MAP TEAM :

Programmation & Développement : Alexandra Zaïnal
Sur une idée originale de : Baudouin d'Aumeries
Assistance à la programmation : Marc-Olivier Méhu
Soutien technique & logistique : Manuel Goepfert

Contact : metmap@orbifly.com




SOURCES & CREDITS :

   NOAA